Time;durP1;ratioP1;P1;durP2;ratioP2;P2;SDS_P1;SDS_P2;PMS_P1;PMS_P2;Temp;Humidity;BMP_temperature;BMP_pressure;BME280_temperature;BME280_humidity;BME280_pressure;Samples;Min_cycle;Max_cycle;Signal;HPM_P1;HPM_P2
2022/07/04 00:01:37;;;;;;;1.27;0.93;;;;;;;21.46;47.80;98935.66;5107699;27;41851;-74
2022/07/04 00:04:05;;;;;;;0.97;0.83;;;;;;;21.42;48.06;98951.31;5086747;27;42637;-76
2022/07/04 00:06:33;;;;;;;1.20;1.10;;;;;;;21.31;47.95;98938.13;5109187;27;43019;-75
2022/07/04 00:09:02;;;;;;;1.13;1.00;;;;;;;21.36;48.46;98956.50;5094601;27;38817;-74
2022/07/04 00:11:29;;;;;;;1.07;0.90;;;;;;;21.31;48.52;98961.53;5092775;27;41609;-75
2022/07/04 00:13:57;;;;;;;1.13;1.10;;;;;;;21.31;48.60;98965.06;5087232;27;43932;-74
2022/07/04 00:16:25;;;;;;;1.33;1.03;;;;;;;21.28;48.60;98964.53;5114416;27;42153;-74
2022/07/04 00:18:52;;;;;;;1.20;0.90;;;;;;;21.24;49.21;98960.50;5133882;27;41403;-74
2022/07/04 00:21:20;;;;;;;1.50;1.20;;;;;;;21.20;49.13;98969.88;5098589;27;41796;-75
2022/07/04 00:23:48;;;;;;;1.10;0.80;;;;;;;21.13;49.04;98970.50;5134552;27;43860;-76
2022/07/04 00:26:17;;;;;;;1.20;1.10;;;;;;;21.13;49.14;98967.81;5116702;27;42351;-75
2022/07/04 00:28:45;;;;;;;1.60;1.10;;;;;;;21.10;49.75;98970.81;5135765;27;40692;-75
2022/07/04 00:31:13;;;;;;;1.10;1.00;;;;;;;21.05;49.77;98962.38;5117169;27;40572;-75
2022/07/04 00:33:41;;;;;;;2.83;1.07;;;;;;;21.05;49.95;98978.53;5117223;27;43647;-75
2022/07/04 00:36:09;;;;;;;1.10;1.00;;;;;;;21.00;49.98;98983.56;5116889;27;41359;-75
2022/07/04 00:38:37;;;;;;;2.17;1.20;;;;;;;20.97;49.99;98978.47;5135578;27;39979;-75
2022/07/04 00:41:05;;;;;;;1.33;1.17;;;;;;;20.95;49.46;98980.47;5116515;27;41567;-75
2022/07/04 00:43:34;;;;;;;1.53;1.10;;;;;;;20.90;49.48;98980.09;5113910;27;42883;-75
2022/07/04 00:46:05;;;;;;;1.10;0.93;;;;;;;20.85;49.56;98979.75;5116496;27;42233;-75
2022/07/04 00:48:33;;;;;;;0.70;0.70;;;;;;;20.81;49.50;98978.38;5099801;27;38943;-75
2022/07/04 00:51:01;;;;;;;2.13;1.10;;;;;;;20.77;50.09;98972.44;5116549;27;40723;-75
2022/07/04 00:53:29;;;;;;;1.83;1.20;;;;;;;20.72;50.19;98972.09;5116630;27;42031;-75
2022/07/04 00:55:56;;;;;;;1.57;1.37;;;;;;;20.65;50.55;98967.47;5111564;27;42997;-77
2022/07/04 00:58:24;;;;;;;1.33;1.10;;;;;;;20.68;50.36;98977.94;5102336;27;41612;-75
2022/07/04 01:00:53;;;;;;;1.37;1.23;;;;;;;20.65;51.06;98973.69;5113608;27;40609;-75
2022/07/04 01:03:21;;;;;;;1.13;1.03;;;;;;;20.65;51.03;98972.84;5109450;27;42019;-75
2022/07/04 01:05:49;;;;;;;1.73;1.17;;;;;;;20.62;50.80;98968.66;5089480;27;41166;-75
2022/07/04 01:08:17;;;;;;;1.20;1.10;;;;;;;20.60;50.80;98969.81;5119055;27;40952;-75
2022/07/04 01:10:45;;;;;;;1.13;1.03;;;;;;;20.58;51.29;98966.41;5110907;27;41778;-75
2022/07/04 01:13:20;;;;;;;1.57;1.10;;;;;;;20.55;50.68;98972.94;5118723;27;43591;-76
2022/07/04 01:15:49;;;;;;;1.77;1.20;;;;;;;20.53;50.71;98977.63;5104135;27;41196;-75
2022/07/04 01:18:18;;;;;;;1.27;1.17;;;;;;;20.52;50.79;98980.50;5097430;27;39126;-75
2022/07/04 01:20:48;;;;;;;0.80;0.80;;;;;;;20.46;51.03;98975.75;5113836;27;41730;-75
2022/07/04 01:23:16;;;;;;;1.10;1.10;;;;;;;20.36;50.76;98974.00;5133141;27;42396;-75
2022/07/04 01:25:44;;;;;;;1.17;0.97;;;;;;;20.38;50.84;98982.75;5133567;27;42284;-75
2022/07/04 01:28:12;;;;;;;1.17;1.07;;;;;;;20.35;50.82;98988.44;5115338;27;41079;-75
2022/07/04 01:30:39;;;;;;;1.40;1.30;;;;;;;20.29;51.22;98985.47;5098865;27;41702;-75
2022/07/04 01:33:07;;;;;;;1.07;1.03;;;;;;;20.23;51.07;98972.66;5116293;27;43675;-75
2022/07/04 01:35:35;;;;;;;1.20;1.10;;;;;;;20.18;51.58;98974.94;5134333;27;42423;-75
2022/07/04 01:38:04;;;;;;;1.63;1.20;;;;;;;20.12;51.29;98980.94;5134826;27;40920;-75
2022/07/04 01:40:32;;;;;;;1.00;0.97;;;;;;;20.08;51.68;98980.41;5134225;27;41699;-75
2022/07/04 01:43:00;;;;;;;0.97;0.97;;;;;;;20.05;51.78;98986.94;5115926;27;44714;-75
2022/07/04 01:45:28;;;;;;;0.93;0.93;;;;;;;19.98;51.91;98976.94;5115753;27;42338;-75
2022/07/04 01:47:56;;;;;;;1.83;1.20;;;;;;;20.01;52.00;98985.56;5096661;27;40033;-75
2022/07/04 01:50:24;;;;;;;1.27;1.17;;;;;;;19.99;51.90;98984.88;5096690;27;40643;-75
2022/07/04 01:52:52;;;;;;;1.40;1.30;;;;;;;19.97;52.19;98977.94;5120577;27;43992;-75
2022/07/04 01:55:21;;;;;;;1.00;0.90;;;;;;;19.95;51.92;98990.69;5111050;27;42054;-75
2022/07/04 01:57:49;;;;;;;1.93;1.00;;;;;;;19.93;52.25;98998.06;5107156;27;39868;-75
2022/07/04 02:03:02;;;;;;;1.17;1.10;;;;;;;19.84;52.37;98994.44;5098116;28;42816;-76
2022/07/04 02:05:30;;;;;;;2.40;1.10;;;;;;;19.75;52.44;98989.13;5076667;28;41846;-75
2022/07/04 02:07:57;;;;;;;1.50;1.30;;;;;;;19.72;52.47;98991.13;5093461;28;39958;-74
2022/07/04 02:10:27;;;;;;;1.00;1.00;;;;;;;19.65;52.54;98990.03;5093256;28;40991;-75
2022/07/04 02:13:02;;;;;;;1.40;1.23;;;;;;;19.62;52.53;98995.69;5110105;28;43950;-75
2022/07/04 02:15:32;;;;;;;1.30;1.20;;;;;;;19.60;53.72;98984.25;5108141;28;42339;-74
2022/07/04 02:18:01;;;;;;;1.43;1.20;;;;;;;19.59;54.30;98987.94;5094345;28;39104;-74
2022/07/04 02:20:29;;;;;;;2.53;1.70;;;;;;;19.59;53.94;98990.63;5112706;28;42541;-75
2022/07/04 02:22:57;;;;;;;1.80;1.17;;;;;;;19.58;53.90;98999.66;5111999;28;43653;-75
2022/07/04 02:25:27;;;;;;;2.40;1.20;;;;;;;19.58;54.28;98998.81;5111606;28;42134;-74
2022/07/04 02:27:58;;;;;;;1.60;1.23;;;;;;;19.57;54.49;99002.50;5111905;28;39223;-75
2022/07/04 02:30:26;;;;;;;1.47;1.30;;;;;;;19.53;54.46;99004.66;5111645;28;41834;-75
2022/07/04 02:32:54;;;;;;;1.27;1.17;;;;;;;19.52;54.13;99005.66;5111915;28;42868;-74
2022/07/04 02:35:22;;;;;;;1.37;1.23;;;;;;;19.50;54.29;99007.66;5094190;28;41576;-75
2022/07/04 02:37:50;;;;;;;1.97;1.20;;;;;;;19.47;53.96;99005.22;5094692;28;38813;-75
2022/07/04 02:40:18;;;;;;;1.47;1.07;;;;;;;19.42;53.96;99010.16;5111261;28;42017;-75
2022/07/04 02:42:47;;;;;;;1.07;1.00;;;;;;;19.37;53.98;99007.09;5112678;28;42711;-75
2022/07/04 02:45:14;;;;;;;2.37;1.10;;;;;;;19.30;53.85;99011.34;5094387;28;42167;-76
2022/07/04 02:47:42;;;;;;;3.40;1.13;;;;;;;19.28;54.45;99018.72;5111673;28;40608;-75
2022/07/04 02:50:10;;;;;;;1.00;1.00;;;;;;;19.22;54.52;99020.16;5111680;28;42207;-75
2022/07/04 02:52:38;;;;;;;1.40;1.30;;;;;;;19.19;54.54;99035.69;5094310;28;43613;-75
2022/07/04 02:55:06;;;;;;;1.37;1.27;;;;;;;19.14;55.06;99036.16;5094007;28;41557;-75
2022/07/04 02:57:37;;;;;;;0.90;0.90;;;;;;;19.12;54.78;99034.59;5111567;28;39888;-75
2022/07/04 03:00:07;;;;;;;1.30;1.20;;;;;;;19.07;54.70;99040.41;5091959;28;42469;-76
2022/07/04 03:02:35;;;;;;;1.43;1.33;;;;;;;19.04;54.84;99032.63;5109109;27;41932;-75
2022/07/04 03:05:03;;;;;;;1.13;1.00;;;;;;;19.00;55.42;99040.16;5109428;27;41202;-75
2022/07/04 03:07:31;;;;;;;1.30;1.20;;;;;;;18.96;55.12;99045.94;5116550;27;40649;-75
2022/07/04 03:09:58;;;;;;;0.97;0.97;;;;;;;18.94;55.14;99048.75;5109340;27;40617;-75
2022/07/04 03:12:26;;;;;;;2.50;1.13;;;;;;;18.92;55.11;99049.88;5110215;27;42811;-75
2022/07/04 03:14:54;;;;;;;5.30;2.33;;;;;;;18.90;54.87;99052.75;5104299;27;43494;-76
2022/07/04 03:17:23;;;;;;;1.30;1.20;;;;;;;18.89;55.34;99056.41;5094912;27;42139;-75
2022/07/04 03:19:51;;;;;;;1.17;1.00;;;;;;;18.87;55.03;99066.44;5095058;27;41152;-75
2022/07/04 03:22:19;;;;;;;2.10;1.40;;;;;;;18.85;55.57;99064.88;5130971;27;42806;-75
2022/07/04 03:24:46;;;;;;;1.03;1.03;;;;;;;18.83;55.49;99061.50;5095014;27;42169;-75
2022/07/04 03:27:14;;;;;;;1.30;1.17;;;;;;;18.81;55.55;99061.63;5112729;27;39990;-75
2022/07/04 03:29:42;;;;;;;1.33;1.23;;;;;;;18.80;55.32;99059.09;5113292;27;42438;-75
2022/07/04 03:32:10;;;;;;;1.23;1.17;;;;;;;18.80;55.79;99061.75;5097179;27;41578;-75
2022/07/04 03:34:39;;;;;;;1.27;1.23;;;;;;;18.75;56.08;99061.38;5096541;27;42282;-74
2022/07/04 03:37:07;;;;;;;2.63;1.27;;;;;;;18.80;55.73;99078.72;5132810;27;40895;-75
2022/07/04 03:39:35;;;;;;;1.40;1.30;;;;;;;18.80;56.29;99067.97;5114284;27;41785;-75
2022/07/04 03:42:02;;;;;;;1.33;1.23;;;;;;;18.81;56.20;99075.03;5096626;27;41863;-75
2022/07/04 03:44:30;;;;;;;1.47;1.37;;;;;;;18.81;56.20;99075.03;5113803;27;41054;-74
2022/07/04 03:46:58;;;;;;;1.00;1.00;;;;;;;18.83;56.93;99082.97;5114357;27;40988;-75
2022/07/04 03:49:26;;;;;;;1.20;1.10;;;;;;;18.83;56.56;99088.31;5114268;27;41890;-75
2022/07/04 03:51:55;;;;;;;1.53;1.20;;;;;;;18.86;56.53;99077.31;5117837;27;42886;-75
2022/07/04 03:54:25;;;;;;;1.30;1.20;;;;;;;18.89;56.39;99083.25;5099804;27;42254;-75
2022/07/04 03:56:52;;;;;;;1.70;1.60;;;;;;;18.92;56.19;99080.25;5133944;27;39992;-75
2022/07/04 03:59:20;;;;;;;1.33;1.23;;;;;;;18.84;56.26;99060.50;5095975;27;41004;-75
2022/07/04 04:01:48;;;;;;;1.10;1.00;;;;;;;18.98;56.29;99098.50;5119427;27;44109;-75
2022/07/04 04:07:17;;;;;;;1.30;1.20;;;;;;;19.09;56.07;99096.63;5028913;28;40045;-75
2022/07/04 04:09:45;;;;;;;0.90;0.90;;;;;;;19.13;55.61;99101.59;5026392;28;41473;-76
2022/07/04 04:12:13;;;;;;;1.67;1.40;;;;;;;19.21;55.75;99104.38;5039644;28;43850;-75
2022/07/04 04:14:41;;;;;;;2.27;1.30;;;;;;;19.31;55.68;99115.94;5095129;28;42318;-75
2022/07/04 04:17:09;;;;;;;0.93;0.90;;;;;;;19.42;55.67;99117.59;5095383;28;40953;-75
2022/07/04 04:19:37;;;;;;;1.13;1.03;;;;;;;19.53;55.55;99113.97;5112766;28;42087;-75
2022/07/04 04:22:05;;;;;;;2.23;1.20;;;;;;;19.62;55.63;99111.25;5113787;28;42723;-75
2022/07/04 04:24:34;;;;;;;1.37;1.27;;;;;;;19.74;55.62;99128.03;5095532;28;43937;-76
2022/07/04 04:27:02;;;;;;;0.90;0.90;;;;;;;19.86;55.31;99120.63;5115040;28;41670;-75
2022/07/04 04:29:30;;;;;;;1.43;1.33;;;;;;;19.95;54.88;99108.97;5096666;28;41745;-75
2022/07/04 04:31:58;;;;;;;1.40;1.30;;;;;;;20.06;54.77;99122.22;5079652;28;41778;-75
2022/07/04 04:34:25;;;;;;;1.23;1.13;;;;;;;20.13;55.34;99122.47;5114985;28;42079;-75
2022/07/04 04:36:53;;;;;;;1.20;1.10;;;;;;;20.20;54.63;99127.09;5114853;28;40093;-75
2022/07/04 04:39:21;;;;;;;1.30;1.20;;;;;;;20.25;54.49;99130.19;5096695;28;42770;-75
2022/07/04 04:41:50;;;;;;;2.33;1.57;;;;;;;20.30;55.02;99135.09;5114316;28;43538;-75
2022/07/04 04:44:19;;;;;;;1.70;1.20;;;;;;;20.35;54.65;99133.69;5079452;28;41286;-75
2022/07/04 04:46:47;;;;;;;1.10;1.10;;;;;;;20.42;54.70;99139.31;5096259;28;38964;-75
2022/07/04 04:49:14;;;;;;;2.17;1.30;;;;;;;20.49;54.91;99137.72;5079205;28;40619;-75
2022/07/04 04:51:42;;;;;;;1.30;1.20;;;;;;;20.49;54.91;99118.03;5113072;28;42581;-76
2022/07/04 04:54:10;;;;;;;2.77;1.30;;;;;;;20.61;54.81;99133.81;5103955;28;42675;-75
2022/07/04 04:56:38;;;;;;;1.40;1.30;;;;;;;20.68;54.62;99134.03;5112793;28;39830;-75
2022/07/04 04:59:08;;;;;;;1.30;1.20;;;;;;;20.61;54.23;99122.19;5094274;28;41707;-75
2022/07/04 05:01:35;;;;;;;2.37;1.43;;;;;;;20.82;54.16;99141.56;5111239;28;43652;-75
2022/07/04 05:04:03;;;;;;;2.17;1.17;;;;;;;20.89;54.16;99142.66;5112786;28;42287;-75
2022/07/04 05:06:31;;;;;;;1.67;1.23;;;;;;;20.98;53.95;99147.13;5113166;28;40081;-75
2022/07/04 05:08:59;;;;;;;2.03;1.20;;;;;;;21.07;53.54;99156.09;5095958;28;41025;-75
2022/07/04 05:11:27;;;;;;;1.20;1.20;;;;;;;21.09;53.67;99160.34;5078992;28;42062;-76
2022/07/04 05:13:55;;;;;;;1.67;1.37;;;;;;;21.20;53.41;99155.75;5114214;28;42214;-72
2022/07/04 05:16:24;;;;;;;1.37;1.20;;;;;;;21.30;53.19;99169.97;5114037;28;40819;-74
2022/07/04 05:18:52;;;;;;;1.07;1.07;;;;;;;21.40;52.95;99170.72;5078771;28;42070;-73
2022/07/04 05:21:19;;;;;;;1.30;1.20;;;;;;;21.50;52.66;99168.78;5095561;28;42843;-73
2022/07/04 05:23:47;;;;;;;1.30;1.10;;;;;;;21.59;52.49;99169.69;5095839;28;43057;-76
2022/07/04 05:26:14;;;;;;;1.30;1.20;;;;;;;21.67;52.32;99173.28;5113967;28;39753;-73
2022/07/04 05:28:42;;;;;;;2.27;1.40;;;;;;;21.77;52.16;99178.56;5095807;28;41912;-74
2022/07/04 05:31:10;;;;;;;1.60;1.27;;;;;;;21.88;51.82;99176.44;5095661;28;41908;-73
2022/07/04 05:33:39;;;;;;;1.57;1.47;;;;;;;22.02;51.43;99175.03;5114024;28;42988;-73
2022/07/04 05:36:07;;;;;;;1.10;1.10;;;;;;;22.19;51.23;99173.25;5129716;27;39757;-74
2022/07/04 05:38:34;;;;;;;2.33;1.40;;;;;;;22.28;50.96;99177.69;5113860;28;41703;-73
2022/07/04 05:41:02;;;;;;;1.30;1.20;;;;;;;22.45;50.72;99182.13;5077931;28;42040;-73
2022/07/04 05:43:30;;;;;;;1.47;1.10;;;;;;;22.64;50.45;99182.84;5113923;28;42238;-73
2022/07/04 05:45:58;;;;;;;2.17;1.07;;;;;;;22.67;50.42;99185.22;5095305;28;40151;-73
2022/07/04 05:48:26;;;;;;;1.73;1.17;;;;;;;22.60;50.38;99186.91;5095566;28;42051;-76
2022/07/04 05:50:55;;;;;;;1.20;1.10;;;;;;;22.68;49.77;99182.38;5113479;28;42800;-74
2022/07/04 05:53:23;;;;;;;2.27;1.00;;;;;;;22.68;49.86;99186.94;5113726;28;43202;-73
2022/07/04 05:55:50;;;;;;;1.10;1.00;;;;;;;22.70;49.79;99195.72;5095025;28;38863;-73
2022/07/04 05:58:18;;;;;;;1.00;0.90;;;;;;;22.85;49.68;99196.81;5113683;28;41966;-74
2022/07/04 06:00:46;;;;;;;1.00;1.00;;;;;;;23.03;49.42;99197.50;5113247;28;43812;-74
2022/07/04 06:03:14;;;;;;;1.90;1.00;;;;;;;23.18;48.60;99194.97;5113359;28;42538;-74
2022/07/04 06:05:41;;;;;;;1.30;1.20;;;;;;;23.27;48.70;99199.38;5094999;28;41907;-74
2022/07/04 06:08:11;;;;;;;1.53;1.17;;;;;;;23.41;48.63;99200.56;5113448;28;41582;-74
2022/07/04 06:10:38;;;;;;;1.30;1.20;;;;;;;23.56;48.17;99204.31;5095022;28;43502;-74
2022/07/04 06:13:06;;;;;;;1.20;1.10;;;;;;;23.65;47.80;99203.28;5077494;28;43039;-74
2022/07/04 06:15:34;;;;;;;1.27;1.07;;;;;;;23.66;47.46;99215.78;5113159;28;40131;-73
2022/07/04 06:18:02;;;;;;;1.27;1.17;;;;;;;23.70;47.69;99219.84;5094881;28;41780;-73
2022/07/04 06:20:30;;;;;;;2.83;1.30;;;;;;;23.74;47.43;99206.84;5094600;28;42648;-74
2022/07/04 06:22:58;;;;;;;3.40;1.43;;;;;;;23.69;47.23;99192.97;5094647;28;41563;-73
2022/07/04 06:25:27;;;;;;;1.13;1.00;;;;;;;23.89;47.28;99205.09;5094645;28;39875;-74
2022/07/04 06:27:55;;;;;;;1.10;1.10;;;;;;;24.03;47.08;99217.09;5113231;28;41577;-74
2022/07/04 06:30:22;;;;;;;2.93;0.93;;;;;;;24.11;46.43;99217.91;5112779;28;42987;-73
2022/07/04 06:32:52;;;;;;;1.30;1.20;;;;;;;24.22;46.52;99222.13;5128981;27;42404;-74
2022/07/04 06:38:07;;;;;;;1.40;1.30;;;;;;;24.57;46.32;99215.41;5109914;28;41521;-74
2022/07/04 06:40:38;;;;;;;1.20;1.10;;;;;;;24.74;45.37;99225.13;5094103;28;42073;-74
2022/07/04 06:43:06;;;;;;;1.43;1.07;;;;;;;24.98;45.02;99229.59;5094822;28;43180;-73
2022/07/04 06:45:35;;;;;;;0.90;0.90;;;;;;;25.46;44.00;99235.72;5094537;28;38906;-81
2022/07/04 06:48:02;;;;;;;2.23;1.07;;;;;;;25.75;44.13;99238.53;5084835;28;43002;-81
2022/07/04 06:50:32;;;;;;;1.30;1.03;;;;;;;25.94;44.06;99221.75;5094722;28;43040;-79
2022/07/04 06:53:00;;;;;;;1.30;1.00;;;;;;;26.08;43.09;99241.81;5092325;27;42600;-82
2022/07/04 06:55:39;;;;;;;1.50;1.40;;;;;;;26.16;42.69;99243.59;5115706;27;41919;-81
2022/07/04 06:58:08;;;;;;;1.20;1.10;;;;;;;25.78;43.31;99205.63;5093763;27;42296;-77
2022/07/04 07:00:36;;;;;;;1.87;1.30;;;;;;;25.79;43.46;99234.44;5133416;27;43575;-74
2022/07/04 07:03:04;;;;;;;1.10;1.00;;;;;;;25.61;43.62;99237.47;5132767;27;43277;-74
2022/07/04 07:05:32;;;;;;;0.87;0.80;;;;;;;25.67;44.02;99225.06;5133212;27;39934;-77
2022/07/04 07:08:00;;;;;;;1.40;1.30;;;;;;;25.79;43.57;99229.03;5133361;27;42346;-77
2022/07/04 07:10:28;;;;;;;1.73;1.10;;;;;;;26.06;42.79;99220.28;5097789;27;44197;-75
2022/07/04 07:12:57;;;;;;;1.03;1.03;;;;;;;26.33;42.90;99226.97;5114642;27;42922;-77
2022/07/04 07:15:25;;;;;;;0.80;0.80;;;;;;;26.68;41.96;99230.78;5115056;27;39821;-76
2022/07/04 07:17:52;;;;;;;1.20;1.10;;;;;;;26.84;41.16;99235.97;5114351;27;42026;-77
2022/07/04 07:20:21;;;;;;;0.93;0.80;;;;;;;26.81;41.67;99225.50;5132934;27;42972;-76
2022/07/04 07:22:48;;;;;;;1.40;1.30;;;;;;;26.81;42.32;99220.06;5114561;27;41087;-75
2022/07/04 07:25:16;;;;;;;1.33;1.13;;;;;;;26.87;41.59;99229.31;5096432;27;40419;-75
2022/07/04 07:27:44;;;;;;;1.63;1.30;;;;;;;26.92;41.62;99231.47;5097047;27;41769;-80
2022/07/04 07:30:13;;;;;;;1.00;0.90;;;;;;;27.00;41.36;99228.66;5097603;27;42900;-84
2022/07/04 07:32:41;;;;;;;1.80;1.10;;;;;;;26.94;40.82;99189.50;5114437;27;43323;-80
2022/07/04 07:35:09;;;;;;;1.50;1.30;;;;;;;27.79;40.10;99235.75;5132802;27;39829;-75
2022/07/04 07:37:37;;;;;;;1.00;1.00;;;;;;;28.93;38.14;99250.75;5113670;27;43653;-75
2022/07/04 07:40:06;;;;;;;1.33;1.10;;;;;;;30.07;35.70;99263.56;5114012;27;41665;-78
2022/07/04 07:42:34;;;;;;;1.33;0.97;;;;;;;31.10;34.69;99270.09;5113550;27;42530;-79
2022/07/04 07:45:02;;;;;;;1.93;1.20;;;;;;;31.95;32.96;99263.22;5115165;27;41853;-86
2022/07/04 07:47:31;;;;;;;1.90;1.00;;;;;;;32.93;31.61;99280.59;5114461;27;42334;-82
2022/07/04 07:49:58;;;;;;;2.00;1.10;;;;;;;33.35;30.67;99275.25;5097492;27;42915;-81
2022/07/04 07:52:26;;;;;;;2.20;1.27;;;;;;;33.29;30.98;99282.50;5097399;27;42619;-86
2022/07/04 07:54:54;;;;;;;1.30;1.20;;;;;;;33.16;30.76;99261.50;5115267;27;39735;-83
2022/07/04 07:57:22;;;;;;;2.67;1.10;;;;;;;33.44;30.64;99273.84;5114818;27;41947;-81
2022/07/04 07:59:49;;;;;;;3.93;1.10;;;;;;;33.36;30.29;99260.44;5133280;27;42479;-83
2022/07/04 08:02:17;;;;;;;1.80;1.10;;;;;;;33.95;29.06;99273.28;5132942;27;42302;-82
2022/07/04 08:04:45;;;;;;;1.00;0.90;;;;;;;35.03;27.95;99282.94;5115056;27;39939;-80
2022/07/04 08:07:13;;;;;;;0.93;0.93;;;;;;;36.07;26.81;99283.56;5097169;27;41432;-84
2022/07/04 08:09:41;;;;;;;1.23;1.13;;;;;;;37.53;25.43;99295.00;5114896;27;43510;-81
2022/07/04 08:12:09;;;;;;;1.58;1.10;;;;;;;39.16;24.03;99289.63;5114455;27;42322;-80
2022/07/04 08:14:37;;;;;;;1.05;0.98;;;;;;;40.60;22.36;99295.88;5114648;27;40944;-76
2022/07/04 08:17:06;;;;;;;1.10;0.90;;;;;;;41.82;20.82;99304.53;5113340;27;41827;-75
2022/07/04 08:19:33;;;;;;;1.92;0.98;;;;;;;42.71;20.10;99302.38;5079313;27;43088;-76
2022/07/04 08:22:03;;;;;;;0.80;0.80;;;;;;;43.23;19.20;99262.50;5113266;27;42234;-76
2022/07/04 08:24:31;;;;;;;0.93;0.93;;;;;;;43.95;18.85;99307.72;5113255;27;38887;-75
2022/07/04 08:26:59;;;;;;;1.25;1.15;;;;;;;44.31;18.27;99287.59;5131589;27;42447;-77
2022/07/04 08:29:31;;;;;;;2.20;1.00;;;;;;;44.51;17.52;99292.03;5131899;27;43720;-76
2022/07/04 08:35:13;;;;;;;1.15;0.95;;;;;;;43.58;18.94;99263.94;5129586;27;41810;-80
2022/07/04 08:37:42;;;;;;;2.25;1.00;;;;;;;43.39;18.71;99277.06;5134834;27;42191;-77
2022/07/04 08:40:11;;;;;;;1.67;1.08;;;;;;;43.04;18.79;99274.69;5135309;27;43642;-79
2022/07/04 08:42:40;;;;;;;0.90;0.90;;;;;;;42.87;18.87;99267.69;5116275;27;42982;-77
2022/07/04 08:45:08;;;;;;;1.15;0.90;;;;;;;42.80;19.27;99267.19;5116797;27;39629;-76
2022/07/04 08:47:38;;;;;;;1.13;1.10;;;;;;;42.90;19.01;99272.66;5099213;27;42113;-79
2022/07/04 08:50:21;;;;;;;1.10;1.00;;;;;;;43.14;18.39;99263.44;5099528;27;41886;-77
2022/07/04 08:52:57;;;;;;;1.20;1.10;;;;;;;43.40;18.09;99264.75;5098934;27;43741;-76
2022/07/04 08:58:29;;;;;;;1.10;1.00;;;;;;;42.95;18.04;99261.44;5066685;27;42331;-76
2022/07/04 09:00:58;;;;;;;1.15;1.02;;;;;;;42.02;19.58;99241.53;5116582;27;42845;-76
2022/07/04 09:03:27;;;;;;;1.33;1.23;;;;;;;41.75;19.55;99236.44;5116152;27;42360;-81
2022/07/04 09:05:56;;;;;;;1.48;0.90;;;;;;;42.05;19.01;99240.94;5116118;27;40843;-76
2022/07/04 09:08:27;;;;;;;0.93;0.85;;;;;;;42.36;18.91;99247.03;5098925;27;41924;-76
2022/07/04 09:10:55;;;;;;;1.80;1.10;;;;;;;42.71;18.75;99243.88;5099457;27;42787;-76
2022/07/04 09:13:23;;;;;;;1.23;1.02;;;;;;;42.98;17.95;99249.69;5098738;27;40969;-76
2022/07/04 09:15:52;;;;;;;1.20;1.10;;;;;;;43.20;18.14;99245.53;5134707;27;40858;-78
2022/07/04 09:18:22;;;;;;;2.08;1.10;;;;;;;42.83;18.34;99237.91;5115849;27;41837;-76
2022/07/04 09:20:51;;;;;;;1.33;1.30;;;;;;;43.11;18.52;99247.31;5098887;27;42593;-76
2022/07/04 09:23:20;;;;;;;2.35;0.90;;;;;;;43.75;17.36;99249.47;5115359;27;42781;-77
2022/07/04 09:26:06;;;;;;;1.23;1.10;;;;;;;43.93;17.34;99242.16;5134061;27;40675;-76
2022/07/04 09:28:35;;;;;;;1.38;0.98;;;;;;;43.72;17.43;99252.03;5098489;27;41633;-75
2022/07/04 09:31:03;;;;;;;1.23;1.13;;;;;;;43.08;17.78;99251.50;5134264;27;42518;-76
2022/07/04 09:33:46;;;;;;;1.05;1.05;;;;;;;41.92;18.19;99247.97;5115427;27;42568;-75
2022/07/04 09:36:14;;;;;;;1.10;1.00;;;;;;;41.28;19.58;99249.00;5098898;27;39331;-75
2022/07/04 09:38:43;;;;;;;1.20;1.10;;;;;;;41.79;18.44;99254.22;5078265;28;40882;-73
2022/07/04 09:41:29;;;;;;;1.90;0.90;;;;;;;42.79;17.44;99246.03;5094719;28;42998;-73
2022/07/04 09:44:02;;;;;;;1.52;0.90;;;;;;;43.98;16.37;99270.88;5110483;28;42883;-73
2022/07/04 09:46:30;;;;;;;1.05;0.98;;;;;;;44.37;16.72;99252.91;5079776;27;38795;-73
2022/07/04 09:48:58;;;;;;;0.98;0.93;;;;;;;44.72;16.37;99265.34;5133142;27;41658;-74
2022/07/04 09:51:40;;;;;;;1.38;0.70;;;;;;;45.60;15.64;99274.38;5133523;27;42820;-75
2022/07/04 09:54:17;;;;;;;0.90;0.90;;;;;;;46.43;14.99;99265.28;5134031;27;43009;-75
2022/07/04 09:56:48;;;;;;;0.70;0.70;;;;;;;47.14;14.51;99280.09;5098123;27;40001;-74
2022/07/04 09:59:17;;;;;;;2.15;0.90;;;;;;;47.25;14.51;99274.16;5115342;27;41040;-74
2022/07/04 10:01:44;;;;;;;1.23;0.85;;;;;;;47.20;14.14;99272.34;5097992;27;41440;-75
2022/07/04 10:04:13;;;;;;;0.70;0.70;;;;;;;46.66;15.28;99262.44;5134050;27;41972;-74
2022/07/04 10:06:43;;;;;;;0.70;0.70;;;;;;;45.08;16.04;99255.06;5114599;27;39278;-74
2022/07/04 10:09:13;;;;;;;1.50;1.00;;;;;;;43.53;17.43;99243.63;5098523;27;40662;-77
2022/07/04 10:11:42;;;;;;;1.02;0.93;;;;;;;42.47;17.97;99237.47;5115584;27;42258;-80
2022/07/04 10:14:14;;;;;;;0.90;0.90;;;;;;;41.77;18.86;99237.00;5133896;27;42546;-79
2022/07/04 10:16:42;;;;;;;0.95;0.93;;;;;;;41.27;19.63;99227.88;5115735;27;41181;-77
2022/07/04 10:19:12;;;;;;;0.82;0.70;;;;;;;40.69;18.85;99229.47;5098801;27;41978;-78
2022/07/04 10:21:40;;;;;;;1.25;0.90;;;;;;;40.20;19.62;99227.34;5114868;27;42787;-75
2022/07/04 10:24:09;;;;;;;1.77;0.80;;;;;;;40.14;19.63;99240.44;5098065;27;42588;-75
2022/07/04 10:26:37;;;;;;;0.93;0.80;;;;;;;40.04;19.85;99232.13;5133071;27;40665;-75
2022/07/04 10:29:05;;;;;;;0.90;0.90;;;;;;;39.74;19.82;99234.88;5114973;27;42447;-73
2022/07/04 10:31:35;;;;;;;1.45;0.90;;;;;;;39.46;19.86;99228.72;5114826;27;42780;-75
2022/07/04 10:34:04;;;;;;;0.75;0.75;;;;;;;39.08;20.93;99212.53;5114931;27;42307;-75
2022/07/04 10:36:32;;;;;;;1.10;1.10;;;;;;;38.79;20.90;99213.00;5132733;27;40712;-74
2022/07/04 10:39:01;;;;;;;1.20;1.00;;;;;;;38.63;20.87;99205.72;5114702;27;41707;-75
2022/07/04 10:41:31;;;;;;;0.85;0.85;;;;;;;38.47;21.50;99203.94;5132276;27;42796;-74
2022/07/04 10:55:11;;;;;;;0.93;0.90;;;;;;;37.44;20.97;99199.84;5119228;27;43142;-74
2022/07/04 10:57:39;;;;;;;1.00;1.00;;;;;;;37.20;21.45;99204.84;5107855;28;42976;-77
2022/07/04 11:00:10;;;;;;;1.83;0.90;;;;;;;36.79;20.63;99204.34;5112373;27;39994;-76
2022/07/04 11:02:38;;;;;;;0.83;0.83;;;;;;;36.57;22.03;99196.06;5093705;28;41562;-75
2022/07/04 11:05:08;;;;;;;0.87;0.70;;;;;;;36.47;22.25;99195.09;5110891;28;41804;-75
2022/07/04 11:07:59;;;;;;;1.43;0.90;;;;;;;36.33;21.74;99197.38;5122950;27;42261;-76
2022/07/04 11:10:33;;;;;;;1.70;0.90;;;;;;;36.28;22.43;99202.81;5097081;27;41168;-77
2022/07/04 11:13:19;;;;;;;1.00;0.70;;;;;;;36.19;22.38;99193.28;5097080;27;40811;-77
2022/07/04 11:16:03;;;;;;;1.67;0.90;;;;;;;35.96;23.01;99189.66;5131591;27;43734;-76
2022/07/04 11:18:39;;;;;;;0.80;0.80;;;;;;;35.87;22.50;99201.34;5129448;27;42274;-76
2022/07/04 11:21:17;;;;;;;1.20;0.80;;;;;;;35.76;22.30;99197.59;5097096;27;40992;-74
2022/07/04 11:23:53;;;;;;;0.93;0.90;;;;;;;35.71;23.16;99199.41;5090681;28;41513;-74
2022/07/04 11:26:26;;;;;;;0.80;0.80;;;;;;;35.74;22.42;99185.97;5094177;27;42689;-74
2022/07/04 11:28:55;;;;;;;0.77;0.77;;;;;;;35.67;22.63;99190.78;5129530;27;42184;-74
2022/07/04 11:31:36;;;;;;;1.30;1.20;;;;;;;35.79;22.24;99188.81;5096742;27;39516;-77
2022/07/04 11:34:04;;;;;;;1.57;0.80;;;;;;;35.81;22.48;99183.91;5111059;27;41662;-76
2022/07/04 11:36:32;;;;;;;5.10;1.00;;;;;;;35.94;21.67;99186.31;5096407;27;41687;-79
2022/07/04 11:39:01;;;;;;;1.10;0.93;;;;;;;36.01;22.13;99188.88;5114194;27;41261;-77
2022/07/04 11:47:09;;;;;;;0.80;0.80;;;;;;;36.93;21.65;99182.72;5096859;27;43101;-77
2022/07/04 11:49:41;;;;;;;1.17;1.07;;;;;;;37.61;22.17;99183.94;5110682;27;43212;-74
2022/07/04 11:52:09;;;;;;;1.00;0.90;;;;;;;38.41;20.97;99194.81;5113558;27;40052;-75
2022/07/04 11:54:37;;;;;;;1.27;0.90;;;;;;;39.40;20.29;99192.94;5096235;27;40619;-76
2022/07/04 11:57:17;;;;;;;0.77;0.60;;;;;;;40.21;19.75;99195.72;5113438;27;42758;-77
2022/07/04 11:59:57;;;;;;;0.73;0.73;;;;;;;40.37;18.21;99199.31;5111132;27;42963;-77
2022/07/04 12:02:26;;;;;;;1.58;0.93;;;;;;;40.48;18.51;99200.94;5076619;28;39669;-76
2022/07/04 12:04:54;;;;;;;2.85;0.90;;;;;;;41.04;17.52;99200.75;5110544;28;41141;-77
2022/07/04 12:07:24;;;;;;;0.95;0.65;;;;;;;41.54;17.21;99200.47;5110027;28;42392;-76
2022/07/04 12:09:54;;;;;;;1.02;0.80;;;;;;;41.88;16.95;99206.00;5109541;28;41248;-76
2022/07/04 12:12:23;;;;;;;1.17;0.80;;;;;;;42.66;16.37;99218.84;5112865;27;39952;-77
2022/07/04 12:14:59;;;;;;;1.38;0.80;;;;;;;43.72;15.30;99212.97;5115146;28;42519;-79